New Jersey Trader — 9HA4050 — position and weather

sailwx.info

Track history (hours):
 
Tides and Currents Weather Stations Pressure Air Temp Water Temp Dewpoint Dewpoint Depression Visibility Wind Speed Wind Dir Waves Ship Positions

New Jersey Trader

Last reported at 2018-Feb-20 13:39 UTC. Time now 2018-Feb-20 14:03 UTC.
Position N 31°49' E 034°39'.

Length 212 m; draft 10 m.

Type: Ship. MMSI: 256976000.

Date/timePositionNaut miles runAvg speedWind from/ knotsBaromVisibWave heightAir tempDewpointWater temp
2018-Feb-20 13:39N 31°49' E 034°39'0 0.0
2018-Feb-20 13:26N 31°49' E 034°39'0 0.0
2018-Feb-20 12:56N 31°49' E 034°39'0 0.0
2018-Feb-20 12:23N 31°49' E 034°39'0 0.0
2018-Feb-20 11:59N 31°49' E 034°39'0 0.0
2018-Feb-20 11:28N 31°49' E 034°39'0 0.0
2018-Feb-20 10:58N 31°49' E 034°39'0 0.0
2018-Feb-20 10:27N 31°49' E 034°39'1 0.1
2018-Feb-19 05:08N 31°51' E 034°38'1 5.4
2018-Feb-19 04:59N 31°52' E 034°38'1 2.0
2018-Feb-19 04:30N 31°52' E 034°37'11 4.5
2018-Feb-19 02:00N 32°02' E 034°31'611.4
2018-Feb-19 01:30N 32°08' E 034°33'3 5.8
2018-Feb-19 01:00N 32°10' E 034°34'3 5.7
2018-Feb-19 00:30N 32°13' E 034°35'5 9.9
2018-Feb-19 00:00N 32°18' E 034°37'510.1
2018-Feb-18 23:30N 32°23' E 034°39'510.2
2018-Feb-18 23:00N 32°27' E 034°41'510.2
2018-Feb-18 22:30N 32°32' E 034°42'510.3
2018-Feb-18 22:00N 32°37' E 034°44'510.3
2018-Feb-18 21:30N 32°42' E 034°46'510.3
2018-Feb-18 21:00N 32°47' E 034°48'5 9.8
2018-Feb-18 20:30N 32°52' E 034°49'4 8.7
2018-Feb-18 20:00N 32°53' E 034°54'5 9.8
2018-Feb-18 19:29N 32°51' E 035°00'1 0.0
2018-Feb-17 17:59N 32°52' E 034°60'1 2.9
2018-Feb-17 17:29N 32°53' E 034°59'0 0.2
2018-Feb-17 16:58N 32°53' E 034°59'1 1.8
2018-Feb-17 16:30N 32°53' E 034°58'1 1.9
2018-Feb-17 16:00N 32°53' E 034°56'1 1.8
2018-Feb-17 15:28N 32°53' E 034°55'2 2.9
2018-Feb-17 14:55N 32°53' E 034°54'410.2
2018-Feb-17 14:30N 32°54' E 034°48'712.5
2018-Feb-17 13:59N 32°56' E 034°41'612.5
2018-Feb-17 13:29N 32°58' E 034°34'  
2018-Feb-15 03:03N 35°45' E 030°25'211.9
2018-Feb-15 02:51N 35°45' E 030°22'23610.8
2018-Feb-14 05:04N 37°23' E 025°55'111.8
2018-Feb-14 05:00N 37°23' E 025°55'611.7
2018-Feb-14 04:30N 37°29' E 025°51'611.2
2018-Feb-14 04:00N 37°34' E 025°50'711.5
2018-Feb-14 03:25N 37°41' E 025°49'  
2018-Feb-11 18:45N 37°49' E 024°26'8 9.7
2018-Feb-11 17:58N 37°44' E 024°18'10 9.5
2018-Feb-11 16:56N 37°37' E 024°10'5 8.4
2018-Feb-11 16:19N 37°36' E 024°04'5 9.6
2018-Feb-11 15:50N 37°36' E 023°58'3 9.5
2018-Feb-11 15:30N 37°36' E 023°54'5 9.5
2018-Feb-11 15:00N 37°36' E 023°48'4 8.8
2018-Feb-11 14:30N 37°39' E 023°43'5 9.9
2018-Feb-11 14:00N 37°43' E 023°40'5 9.9
2018-Feb-11 13:30N 37°48' E 023°38'5 9.7
2018-Feb-11 13:00N 37°52' E 023°37'4 9.0
2018-Feb-11 12:30N 37°57' E 023°36'1 1.2
2018-Feb-11 12:00N 37°57' E 023°35'0 0.0
2018-Feb-11 11:30N 37°57' E 023°35'0 0.0
2018-Feb-11 10:58N 37°57' E 023°35'0 0.0
2018-Feb-11 10:28N 37°57' E 023°35'0 0.0
2018-Feb-11 09:58N 37°57' E 023°35'0 0.0
2018-Feb-11 09:28N 37°57' E 023°35'0 0.0
2018-Feb-11 08:58N 37°57' E 023°35'0 0.0
2018-Feb-11 08:28N 37°57' E 023°35'0 0.0
2018-Feb-11 07:58N 37°57' E 023°35'0 0.0
2018-Feb-11 07:28N 37°57' E 023°35'0 0.0
2018-Feb-11 06:58N 37°57' E 023°35'0 0.0
2018-Feb-11 06:28N 37°57' E 023°35'0 0.0
2018-Feb-11 05:58N 37°57' E 023°35'0 0.0
2018-Feb-11 05:28N 37°57' E 023°35'0 0.0
2018-Feb-11 04:58N 37°57' E 023°35'0 0.0
2018-Feb-11 04:28N 37°57' E 023°35'0 0.0
2018-Feb-11 03:58N 37°57' E 023°35'0 0.0
2018-Feb-11 03:28N 37°57' E 023°35'0 0.0
2018-Feb-11 02:58N 37°57' E 023°35'0 0.0
2018-Feb-11 02:28N 37°57' E 023°35'0 0.0
2018-Feb-11 01:58N 37°57' E 023°35'0 0.0
2018-Feb-11 01:28N 37°57' E 023°35'0 0.0
2018-Feb-11 00:58N 37°57' E 023°35'0 0.0
2018-Feb-11 00:28N 37°57' E 023°35'0 0.0
2018-Feb-10 23:58N 37°57' E 023°35'0 0.0
2018-Feb-10 23:28N 37°57' E 023°35'0 0.0
2018-Feb-10 22:58N 37°57' E 023°35'0 0.0
2018-Feb-10 22:28N 37°57' E 023°35'0 0.0
2018-Feb-10 21:58N 37°57' E 023°35'0 0.0
2018-Feb-10 21:28N 37°57' E 023°35'0 0.0
2018-Feb-10 20:58N 37°57' E 023°35'0 0.0
2018-Feb-10 20:28N 37°57' E 023°35'0 0.0
2018-Feb-10 19:58N 37°57' E 023°35'0 0.0
2018-Feb-10 19:28N 37°57' E 023°35'0 0.0
2018-Feb-10 18:58N 37°57' E 023°35'0 0.0
2018-Feb-10 18:28N 37°57' E 023°35'0 0.0
2018-Feb-10 17:58N 37°57' E 023°35'0 0.0
2018-Feb-10 17:28N 37°57' E 023°35'0 0.0
2018-Feb-10 16:58N 37°57' E 023°35'0 0.0
2018-Feb-10 16:28N 37°57' E 023°35'0 0.0
2018-Feb-10 15:58N 37°57' E 023°35'0 0.0
2018-Feb-10 15:28N 37°57' E 023°35'0 0.0
2018-Feb-10 14:58N 37°57' E 023°35'0 0.0
2018-Feb-10 14:28N 37°57' E 023°35'0 0.0
2018-Feb-10 13:58N 37°57' E 023°35'  
Track history (hours):
 
Tides and Currents Weather Stations Pressure Air Temp Water Temp Dewpoint Dewpoint Depression Visibility Wind Speed Wind Dir Waves Ship Positions

New Jersey Trader

Last reported at 2018-Feb-20 13:39 UTC. Time now 2018-Feb-20 14:03 UTC.
Position N 31°49' E 034°39'.

Length 212 m; draft 10 m.

Type: Ship. MMSI: 256976000.

Date/timePositionNaut miles runAvg speedWind from/ knotsBaromVisibWave heightAir tempDewpointWater temp
2018-Feb-20 13:39N 31°49' E 034°39'0 0.0
2018-Feb-20 13:26N 31°49' E 034°39'0 0.0
2018-Feb-20 12:56N 31°49' E 034°39'0 0.0
2018-Feb-20 12:23N 31°49' E 034°39'0 0.0
2018-Feb-20 11:59N 31°49' E 034°39'0 0.0
2018-Feb-20 11:28N 31°49' E 034°39'0 0.0
2018-Feb-20 10:58N 31°49' E 034°39'0 0.0
2018-Feb-20 10:27N 31°49' E 034°39'1 0.1
2018-Feb-19 05:08N 31°51' E 034°38'1 5.4
2018-Feb-19 04:59N 31°52' E 034°38'1 2.0
2018-Feb-19 04:30N 31°52' E 034°37'11 4.5
2018-Feb-19 02:00N 32°02' E 034°31'611.4
2018-Feb-19 01:30N 32°08' E 034°33'3 5.8
2018-Feb-19 01:00N 32°10' E 034°34'3 5.7
2018-Feb-19 00:30N 32°13' E 034°35'5 9.9
2018-Feb-19 00:00N 32°18' E 034°37'510.1
2018-Feb-18 23:30N 32°23' E 034°39'510.2
2018-Feb-18 23:00N 32°27' E 034°41'510.2
2018-Feb-18 22:30N 32°32' E 034°42'510.3
2018-Feb-18 22:00N 32°37' E 034°44'510.3
2018-Feb-18 21:30N 32°42' E 034°46'510.3
2018-Feb-18 21:00N 32°47' E 034°48'5 9.8
2018-Feb-18 20:30N 32°52' E 034°49'4 8.7
2018-Feb-18 20:00N 32°53' E 034°54'5 9.8
2018-Feb-18 19:29N 32°51' E 035°00'1 0.0
2018-Feb-17 17:59N 32°52' E 034°60'1 2.9
2018-Feb-17 17:29N 32°53' E 034°59'0 0.2
2018-Feb-17 16:58N 32°53' E 034°59'1 1.8
2018-Feb-17 16:30N 32°53' E 034°58'1 1.9
2018-Feb-17 16:00N 32°53' E 034°56'1 1.8
2018-Feb-17 15:28N 32°53' E 034°55'2 2.9
2018-Feb-17 14:55N 32°53' E 034°54'410.2
2018-Feb-17 14:30N 32°54' E 034°48'712.5
2018-Feb-17 13:59N 32°56' E 034°41'612.5
2018-Feb-17 13:29N 32°58' E 034°34'  
2018-Feb-15 03:03N 35°45' E 030°25'211.9
2018-Feb-15 02:51N 35°45' E 030°22'23610.8
2018-Feb-14 05:04N 37°23' E 025°55'111.8
2018-Feb-14 05:00N 37°23' E 025°55'611.7
2018-Feb-14 04:30N 37°29' E 025°51'611.2
2018-Feb-14 04:00N 37°34' E 025°50'711.5
2018-Feb-14 03:25N 37°41' E 025°49'  
2018-Feb-11 18:45N 37°49' E 024°26'8 9.7
2018-Feb-11 17:58N 37°44' E 024°18'10 9.5
2018-Feb-11 16:56N 37°37' E 024°10'5 8.4
2018-Feb-11 16:19N 37°36' E 024°04'5 9.6
2018-Feb-11 15:50N 37°36' E 023°58'3 9.5
2018-Feb-11 15:30N 37°36' E 023°54'5 9.5
2018-Feb-11 15:00N 37°36' E 023°48'4 8.8
2018-Feb-11 14:30N 37°39' E 023°43'5 9.9
2018-Feb-11 14:00N 37°43' E 023°40'5 9.9
2018-Feb-11 13:30N 37°48' E 023°38'5 9.7
2018-Feb-11 13:00N 37°52' E 023°37'4 9.0
2018-Feb-11 12:30N 37°57' E 023°36'1 1.2
2018-Feb-11 12:00N 37°57' E 023°35'0 0.0
2018-Feb-11 11:30N 37°57' E 023°35'0 0.0
2018-Feb-11 10:58N 37°57' E 023°35'0 0.0
2018-Feb-11 10:28N 37°57' E 023°35'0 0.0
2018-Feb-11 09:58N 37°57' E 023°35'0 0.0
2018-Feb-11 09:28N 37°57' E 023°35'0 0.0
2018-Feb-11 08:58N 37°57' E 023°35'0 0.0
2018-Feb-11 08:28N 37°57' E 023°35'0 0.0
2018-Feb-11 07:58N 37°57' E 023°35'0 0.0
2018-Feb-11 07:28N 37°57' E 023°35'0 0.0
2018-Feb-11 06:58N 37°57' E 023°35'0 0.0
2018-Feb-11 06:28N 37°57' E 023°35'0 0.0
2018-Feb-11 05:58N 37°57' E 023°35'0 0.0
2018-Feb-11 05:28N 37°57' E 023°35'0 0.0
2018-Feb-11 04:58N 37°57' E 023°35'0 0.0
2018-Feb-11 04:28N 37°57' E 023°35'0 0.0
2018-Feb-11 03:58N 37°57' E 023°35'0 0.0
2018-Feb-11 03:28N 37°57' E 023°35'0 0.0
2018-Feb-11 02:58N 37°57' E 023°35'0 0.0
2018-Feb-11 02:28N 37°57' E 023°35'0 0.0
2018-Feb-11 01:58N 37°57' E 023°35'0 0.0
2018-Feb-11 01:28N 37°57' E 023°35'0 0.0
2018-Feb-11 00:58N 37°57' E 023°35'0 0.0
2018-Feb-11 00:28N 37°57' E 023°35'0 0.0
2018-Feb-10 23:58N 37°57' E 023°35'0 0.0
2018-Feb-10 23:28N 37°57' E 023°35'0 0.0
2018-Feb-10 22:58N 37°57' E 023°35'0 0.0
2018-Feb-10 22:28N 37°57' E 023°35'0 0.0
2018-Feb-10 21:58N 37°57' E 023°35'0 0.0
2018-Feb-10 21:28N 37°57' E 023°35'0 0.0
2018-Feb-10 20:58N 37°57' E 023°35'0 0.0
2018-Feb-10 20:28N 37°57' E 023°35'0 0.0
2018-Feb-10 19:58N 37°57' E 023°35'0 0.0
2018-Feb-10 19:28N 37°57' E 023°35'0 0.0
2018-Feb-10 18:58N 37°57' E 023°35'0 0.0
2018-Feb-10 18:28N 37°57' E 023°35'0 0.0
2018-Feb-10 17:58N 37°57' E 023°35'0 0.0
2018-Feb-10 17:28N 37°57' E 023°35'0 0.0
2018-Feb-10 16:58N 37°57' E 023°35'0 0.0
2018-Feb-10 16:28N 37°57' E 023°35'0 0.0
2018-Feb-10 15:58N 37°57' E 023°35'0 0.0
2018-Feb-10 15:28N 37°57' E 023°35'0 0.0
2018-Feb-10 14:58N 37°57' E 023°35'0 0.0
2018-Feb-10 14:28N 37°57' E 023°35'0 0.0
2018-Feb-10 13:58N 37°57' E 023°35'  

Dump ship's entire track history